sensor_id;sensor_type;location;lat;lon;timestamp;pressure;altitude;pressure_sealevel;temperature;humidity
77749;BME280;66938;52.084;5.228;2023-07-28T00:01:48;100548.0;;;19.79;84.46
77749;BME280;66938;52.084;5.228;2023-07-28T00:03:24;100548.0;;;19.79;84.48
77749;BME280;66938;52.084;5.228;2023-07-28T00:05:01;100553.0;;;19.77;84.6
77749;BME280;66938;52.084;5.228;2023-07-28T00:08:13;100555.0;;;19.86;84.16
77749;BME280;66938;52.084;5.228;2023-07-28T00:09:49;100550.0;;;19.86;84.04
77749;BME280;66938;52.084;5.228;2023-07-28T00:11:25;100550.0;;;19.75;84.43
77749;BME280;66938;52.084;5.228;2023-07-28T00:14:37;100545.0;;;19.84;84.01
77749;BME280;66938;52.084;5.228;2023-07-28T00:16:13;100537.0;;;19.91;83.85
77749;BME280;66938;52.084;5.228;2023-07-28T00:17:49;100539.0;;;19.98;83.57
77749;BME280;66938;52.084;5.228;2023-07-28T00:21:04;100537.0;;;19.96;83.45
77749;BME280;66938;52.084;5.228;2023-07-28T00:22:41;100537.0;;;19.89;83.63
77749;BME280;66938;52.084;5.228;2023-07-28T00:24:18;100539.0;;;19.8;83.85
77749;BME280;66938;52.084;5.228;2023-07-28T00:25:54;100536.0;;;19.84;83.89
77749;BME280;66938;52.084;5.228;2023-07-28T00:29:06;100535.0;;;19.86;83.85
77749;BME280;66938;52.084;5.228;2023-07-28T00:30:42;100537.0;;;19.77;83.98
77749;BME280;66938;52.084;5.228;2023-07-28T00:32:19;100539.0;;;19.77;84.12
77749;BME280;66938;52.084;5.228;2023-07-28T00:35:32;100542.0;;;19.77;84.02
77749;BME280;66938;52.084;5.228;2023-07-28T00:37:08;100541.0;;;19.81;83.81
77749;BME280;66938;52.084;5.228;2023-07-28T00:38:44;100536.0;;;19.84;83.82
77749;BME280;66938;52.084;5.228;2023-07-28T00:41:57;100534.0;;;19.87;83.67
77749;BME280;66938;52.084;5.228;2023-07-28T00:43:33;100531.0;;;19.93;83.46
77749;BME280;66938;52.084;5.228;2023-07-28T00:45:10;100536.0;;;20.0;83.26
77749;BME280;66938;52.084;5.228;2023-07-28T00:46:46;100535.0;;;19.96;83.23
77749;BME280;66938;52.084;5.228;2023-07-28T00:49:59;100536.0;;;19.86;83.55
77749;BME280;66938;52.084;5.228;2023-07-28T00:51:37;100538.0;;;19.91;83.35
77749;BME280;66938;52.084;5.228;2023-07-28T00:53:14;100532.0;;;19.91;83.43
77749;BME280;66938;52.084;5.228;2023-07-28T00:56:27;100534.0;;;19.88;83.45
77749;BME280;66938;52.084;5.228;2023-07-28T00:58:04;100533.0;;;19.8;83.76
77749;BME280;66938;52.084;5.228;2023-07-28T00:59:40;100530.0;;;19.82;83.66
77749;BME280;66938;52.084;5.228;2023-07-28T01:02:52;100539.0;;;19.86;83.39
77749;BME280;66938;52.084;5.228;2023-07-28T01:04:28;100539.0;;;19.91;83.26
77749;BME280;66938;52.084;5.228;2023-07-28T01:06:14;100539.0;;;19.88;83.34
77749;BME280;66938;52.084;5.228;2023-07-28T01:08:01;100549.0;;;19.91;83.23
77749;BME280;66938;52.084;5.228;2023-07-28T01:09:47;100542.0;;;19.98;82.93
77749;BME280;66938;52.084;5.228;2023-07-28T01:13:02;100542.0;;;19.96;82.97
77749;BME280;66938;52.084;5.228;2023-07-28T01:14:38;100545.0;;;19.96;82.83
77749;BME280;66938;52.084;5.228;2023-07-28T01:16:14;100541.0;;;19.88;83.11
77749;BME280;66938;52.084;5.228;2023-07-28T01:19:27;100541.0;;;19.91;83.06
77749;BME280;66938;52.084;5.228;2023-07-28T01:21:06;100544.0;;;19.91;83.05
77749;BME280;66938;52.084;5.228;2023-07-28T01:22:56;100550.0;;;19.96;82.97
77749;BME280;66938;52.084;5.228;2023-07-28T01:24:49;100555.0;;;20.0;82.85
77749;BME280;66938;52.084;5.228;2023-07-28T01:26:31;100558.0;;;19.86;83.31
77749;BME280;66938;52.084;5.228;2023-07-28T01:29:46;100552.0;;;19.93;83.07
77749;BME280;66938;52.084;5.228;2023-07-28T01:31:22;100547.0;;;19.93;83.12
77749;BME280;66938;52.084;5.228;2023-07-28T01:32:58;100544.0;;;19.93;83.09
77749;BME280;66938;52.084;5.228;2023-07-28T01:36:10;100550.0;;;19.93;83.04
77749;BME280;66938;52.084;5.228;2023-07-28T01:37:47;100553.0;;;19.88;83.19
77749;BME280;66938;52.084;5.228;2023-07-28T01:39:23;100555.0;;;19.84;83.43
77749;BME280;66938;52.084;5.228;2023-07-28T01:42:35;100550.0;;;19.91;83.33
77749;BME280;66938;52.084;5.228;2023-07-28T01:44:11;100552.0;;;19.8;83.72
77749;BME280;66938;52.084;5.228;2023-07-28T01:45:47;100547.0;;;19.8;84.07
77749;BME280;66938;52.084;5.228;2023-07-28T01:47:23;100545.0;;;19.86;83.98
77749;BME280;66938;52.084;5.228;2023-07-28T01:50:36;100548.0;;;19.77;84.43
77749;BME280;66938;52.084;5.228;2023-07-28T01:52:12;100544.0;;;19.73;84.64
77749;BME280;66938;52.084;5.228;2023-07-28T01:53:48;100552.0;;;19.72;84.8
77749;BME280;66938;52.084;5.228;2023-07-28T01:57:00;100546.0;;;19.7;85.13
77749;BME280;66938;52.084;5.228;2023-07-28T01:58:36;100552.0;;;19.7;85.09
77749;BME280;66938;52.084;5.228;2023-07-28T02:00:13;100548.0;;;19.68;85.34
77749;BME280;66938;52.084;5.228;2023-07-28T02:03:25;100553.0;;;19.68;85.35
77749;BME280;66938;52.084;5.228;2023-07-28T02:05:02;100550.0;;;19.75;85.26
77749;BME280;66938;52.084;5.228;2023-07-28T02:06:38;100555.0;;;19.75;85.26
77749;BME280;66938;52.084;5.228;2023-07-28T02:08:14;100559.0;;;19.7;85.4
77749;BME280;66938;52.084;5.228;2023-07-28T02:11:26;100549.0;;;19.68;85.5
77749;BME280;66938;52.084;5.228;2023-07-28T02:13:02;100550.0;;;19.71;85.49
77749;BME280;66938;52.084;5.228;2023-07-28T02:14:38;100547.0;;;19.7;85.53
77749;BME280;66938;52.084;5.228;2023-07-28T02:17:51;100548.0;;;19.68;85.71
77749;BME280;66938;52.084;5.228;2023-07-28T02:19:27;100551.0;;;19.73;85.54
77749;BME280;66938;52.084;5.228;2023-07-28T02:21:03;100552.0;;;19.7;85.62
77749;BME280;66938;52.084;5.228;2023-07-28T02:24:15;100552.0;;;19.63;85.82
77749;BME280;66938;52.084;5.228;2023-07-28T02:25:51;100548.0;;;19.59;86.08
77749;BME280;66938;52.084;5.228;2023-07-28T02:27:28;100555.0;;;19.68;85.98
77749;BME280;66938;52.084;5.228;2023-07-28T02:30:41;100553.0;;;19.61;86.11
77749;BME280;66938;52.084;5.228;2023-07-28T02:32:17;100551.0;;;19.64;86.09
77749;BME280;66938;52.084;5.228;2023-07-28T02:33:53;100545.0;;;19.59;86.2
77749;BME280;66938;52.084;5.228;2023-07-28T02:35:29;100546.0;;;19.54;86.13
77749;BME280;66938;52.084;5.228;2023-07-28T02:38:41;100545.0;;;19.61;86.28
77749;BME280;66938;52.084;5.228;2023-07-28T02:40:17;100544.0;;;19.63;86.17
77749;BME280;66938;52.084;5.228;2023-07-28T02:41:53;100541.0;;;19.66;86.03
77749;BME280;66938;52.084;5.228;2023-07-28T02:45:07;100544.0;;;19.61;86.3
77749;BME280;66938;52.084;5.228;2023-07-28T02:46:43;100549.0;;;19.68;86.13
77749;BME280;66938;52.084;5.228;2023-07-28T02:48:19;100555.0;;;19.75;85.85
77749;BME280;66938;52.084;5.228;2023-07-28T02:51:31;100552.0;;;19.66;86.03
77749;BME280;66938;52.084;5.228;2023-07-28T02:53:07;100555.0;;;19.7;85.96
77749;BME280;66938;52.084;5.228;2023-07-28T02:54:44;100558.0;;;19.64;86.13
77749;BME280;66938;52.084;5.228;2023-07-28T02:57:56;100558.0;;;19.71;86.03
77749;BME280;66938;52.084;5.228;2023-07-28T02:59:32;100557.0;;;19.75;85.89
77749;BME280;66938;52.084;5.228;2023-07-28T03:01:08;100555.0;;;19.71;86.03
77749;BME280;66938;52.084;5.228;2023-07-28T03:02:44;100553.0;;;19.73;86.0
77749;BME280;66938;52.084;5.228;2023-07-28T03:05:56;100558.0;;;19.77;85.88
77749;BME280;66938;52.084;5.228;2023-07-28T03:07:33;100560.0;;;19.75;85.95
77749;BME280;66938;52.084;5.228;2023-07-28T03:09:09;100564.0;;;19.75;85.94
77749;BME280;66938;52.084;5.228;2023-07-28T03:12:21;100571.0;;;19.66;86.27
77749;BME280;66938;52.084;5.228;2023-07-28T03:13:57;100569.0;;;19.72;86.13
77749;BME280;66938;52.084;5.228;2023-07-28T03:15:33;100573.0;;;19.75;86.03
77749;BME280;66938;52.084;5.228;2023-07-28T03:18:46;100574.0;;;19.68;86.38
77749;BME280;66938;52.084;5.228;2023-07-28T03:20:22;100572.0;;;19.7;86.33
77749;BME280;66938;52.084;5.228;2023-07-28T03:21:58;100572.0;;;19.71;86.25
77749;BME280;66938;52.084;5.228;2023-07-28T03:23:34;100575.0;;;19.78;86.15
77749;BME280;66938;52.084;5.228;2023-07-28T03:26:48;100577.0;;;19.75;86.22
77749;BME280;66938;52.084;5.228;2023-07-28T03:28:24;100573.0;;;19.77;86.29
77749;BME280;66938;52.084;5.228;2023-07-28T03:30:01;100580.0;;;19.77;86.25
77749;BME280;66938;52.084;5.228;2023-07-28T03:33:13;100580.0;;;19.72;86.59
77749;BME280;66938;52.084;5.228;2023-07-28T03:34:50;100576.0;;;19.8;86.26
77749;BME280;66938;52.084;5.228;2023-07-28T03:36:27;100578.0;;;19.8;86.13
77749;BME280;66938;52.084;5.228;2023-07-28T03:39:39;100580.0;;;19.84;86.03
77749;BME280;66938;52.084;5.228;2023-07-28T03:41:15;100581.0;;;19.77;86.32
77749;BME280;66938;52.084;5.228;2023-07-28T03:42:51;100581.0;;;19.7;86.63
77749;BME280;66938;52.084;5.228;2023-07-28T03:44:28;100588.0;;;19.75;86.51
77749;BME280;66938;52.084;5.228;2023-07-28T03:47:41;100595.0;;;19.72;86.67
77749;BME280;66938;52.084;5.228;2023-07-28T03:49:18;100590.0;;;19.75;86.69
77749;BME280;66938;52.084;5.228;2023-07-28T03:50:54;100588.0;;;19.75;86.51
77749;BME280;66938;52.084;5.228;2023-07-28T03:54:06;100592.0;;;19.77;86.45
77749;BME280;66938;52.084;5.228;2023-07-28T03:55:42;100589.0;;;19.8;86.36
77749;BME280;66938;52.084;5.228;2023-07-28T03:57:18;100594.0;;;19.87;86.12
77749;BME280;66938;52.084;5.228;2023-07-28T04:00:31;100587.0;;;19.84;86.15
77749;BME280;66938;52.084;5.228;2023-07-28T04:02:07;100589.0;;;19.86;86.2
77749;BME280;66938;52.084;5.228;2023-07-28T04:03:43;100590.0;;;19.84;86.16
77749;BME280;66938;52.084;5.228;2023-07-28T04:06:55;100592.0;;;19.91;86.02
77749;BME280;66938;52.084;5.228;2023-07-28T04:08:31;100592.0;;;19.95;85.86
77749;BME280;66938;52.084;5.228;2023-07-28T04:10:08;100600.0;;;19.91;86.02
77749;BME280;66938;52.084;5.228;2023-07-28T04:11:44;100594.0;;;19.95;85.99
77749;BME280;66938;52.084;5.228;2023-07-28T04:14:56;100598.0;;;19.89;86.06
77749;BME280;66938;52.084;5.228;2023-07-28T04:16:32;100600.0;;;19.96;85.93
77749;BME280;66938;52.084;5.228;2023-07-28T04:18:09;100601.0;;;19.93;85.99
77749;BME280;66938;52.084;5.228;2023-07-28T04:21:22;100598.0;;;19.95;85.93
77749;BME280;66938;52.084;5.228;2023-07-28T04:22:57;100599.0;;;19.98;85.77
77749;BME280;66938;52.084;5.228;2023-07-28T04:24:34;100599.0;;;19.97;85.82
77749;BME280;66938;52.084;5.228;2023-07-28T04:27:46;100605.0;;;19.98;85.71
77749;BME280;66938;52.084;5.228;2023-07-28T04:29:22;100598.0;;;19.95;85.83
77749;BME280;66938;52.084;5.228;2023-07-28T04:30:58;100602.0;;;19.98;85.93
77749;BME280;66938;52.084;5.228;2023-07-28T04:32:34;100603.0;;;19.86;86.16
77749;BME280;66938;52.084;5.228;2023-07-28T04:35:47;100607.0;;;19.91;86.2
77749;BME280;66938;52.084;5.228;2023-07-28T04:37:23;100612.0;;;20.0;85.87
77749;BME280;66938;52.084;5.228;2023-07-28T04:38:59;100605.0;;;19.91;86.03
77749;BME280;66938;52.084;5.228;2023-07-28T04:42:11;100608.0;;;19.95;86.03
77749;BME280;66938;52.084;5.228;2023-07-28T04:43:47;100606.0;;;19.98;85.91
77749;BME280;66938;52.084;5.228;2023-07-28T04:45:23;100611.0;;;19.96;85.99
77749;BME280;66938;52.084;5.228;2023-07-28T04:48:36;100609.0;;;19.93;85.97
77749;BME280;66938;52.084;5.228;2023-07-28T04:50:12;100614.0;;;19.87;86.2
77749;BME280;66938;52.084;5.228;2023-07-28T04:51:48;100613.0;;;19.95;85.86
77749;BME280;66938;52.084;5.228;2023-07-28T04:55:00;100617.0;;;19.91;85.94
77749;BME280;66938;52.084;5.228;2023-07-28T04:56:36;100620.0;;;19.86;86.29
77749;BME280;66938;52.084;5.228;2023-07-28T04:58:12;100625.0;;;19.95;86.06
77749;BME280;66938;52.084;5.228;2023-07-28T04:59:49;100627.0;;;19.93;86.0
77749;BME280;66938;52.084;5.228;2023-07-28T05:03:02;100624.0;;;19.93;86.12
77749;BME280;66938;52.084;5.228;2023-07-28T05:04:38;100620.0;;;19.87;86.09
77749;BME280;66938;52.084;5.228;2023-07-28T05:06:14;100618.0;;;19.86;86.17
77749;BME280;66938;52.084;5.228;2023-07-28T05:09:26;100622.0;;;19.79;86.54
77749;BME280;66938;52.084;5.228;2023-07-28T05:11:03;100625.0;;;19.8;86.59
77749;BME280;66938;52.084;5.228;2023-07-28T05:12:39;100624.0;;;19.88;86.37
77749;BME280;66938;52.084;5.228;2023-07-28T05:15:51;100630.0;;;19.93;86.21
77749;BME280;66938;52.084;5.228;2023-07-28T05:17:27;100630.0;;;19.79;86.59
77749;BME280;66938;52.084;5.228;2023-07-28T05:19:05;100630.0;;;19.75;86.89
77749;BME280;66938;52.084;5.228;2023-07-28T05:20:43;100628.0;;;19.81;86.7
77749;BME280;66938;52.084;5.228;2023-07-28T05:23:55;100626.0;;;19.84;86.74
77749;BME280;66938;52.084;5.228;2023-07-28T05:25:32;100628.0;;;19.88;86.46
77749;BME280;66938;52.084;5.228;2023-07-28T05:27:08;100625.0;;;19.86;86.59
77749;BME280;66938;52.084;5.228;2023-07-28T05:30:20;100628.0;;;19.91;86.42
77749;BME280;66938;52.084;5.228;2023-07-28T05:31:58;100628.0;;;19.91;86.49
77749;BME280;66938;52.084;5.228;2023-07-28T05:33:34;100626.0;;;19.91;86.52
77749;BME280;66938;52.084;5.228;2023-07-28T05:36:46;100622.0;;;19.89;86.69
77749;BME280;66938;52.084;5.228;2023-07-28T05:38:23;100624.0;;;19.81;86.79
77749;BME280;66938;52.084;5.228;2023-07-28T05:39:59;100627.0;;;19.8;87.06
77749;BME280;66938;52.084;5.228;2023-07-28T05:43:12;100630.0;;;19.79;87.27
77749;BME280;66938;52.084;5.228;2023-07-28T05:44:48;100626.0;;;19.84;87.08
77749;BME280;66938;52.084;5.228;2023-07-28T05:46:24;100634.0;;;19.82;87.21
77749;BME280;66938;52.084;5.228;2023-07-28T05:48:00;100638.0;;;19.91;87.02
77749;BME280;66938;52.084;5.228;2023-07-28T05:51:14;100646.0;;;19.86;87.25
77749;BME280;66938;52.084;5.228;2023-07-28T05:54:26;100650.0;;;19.91;87.19
77749;BME280;66938;52.084;5.228;2023-07-28T05:57:38;100648.0;;;19.95;87.0
77749;BME280;66938;52.084;5.228;2023-07-28T05:59:14;100652.0;;;19.88;87.21
77749;BME280;66938;52.084;5.228;2023-07-28T06:00:50;100655.0;;;19.95;86.98
77749;BME280;66938;52.084;5.228;2023-07-28T06:04:03;100652.0;;;19.96;87.0
77749;BME280;66938;52.084;5.228;2023-07-28T06:05:39;100649.0;;;19.97;87.12
77749;BME280;66938;52.084;5.228;2023-07-28T06:07:15;100649.0;;;20.0;87.07
77749;BME280;66938;52.084;5.228;2023-07-28T06:08:51;100655.0;;;20.0;87.1
77749;BME280;66938;52.084;5.228;2023-07-28T06:12:04;100651.0;;;19.95;87.13
77749;BME280;66938;52.084;5.228;2023-07-28T06:13:41;100656.0;;;20.02;87.0
77749;BME280;66938;52.084;5.228;2023-07-28T06:15:17;100657.0;;;19.91;87.27
77749;BME280;66938;52.084;5.228;2023-07-28T06:18:29;100657.0;;;20.04;87.0
77749;BME280;66938;52.084;5.228;2023-07-28T06:20:06;100662.0;;;20.02;87.0
77749;BME280;66938;52.084;5.228;2023-07-28T06:21:42;100667.0;;;20.02;86.98
77749;BME280;66938;52.084;5.228;2023-07-28T06:24:54;100666.0;;;19.96;86.95
77749;BME280;66938;52.084;5.228;2023-07-28T06:26:30;100669.0;;;20.07;86.76
77749;BME280;66938;52.084;5.228;2023-07-28T06:28:07;100673.0;;;19.95;87.02
77749;BME280;66938;52.084;5.228;2023-07-28T06:31:19;100674.0;;;20.04;86.73
77749;BME280;66938;52.084;5.228;2023-07-28T06:32:55;100677.0;;;20.02;87.04
77749;BME280;66938;52.084;5.228;2023-07-28T06:34:31;100671.0;;;20.09;86.75
77749;BME280;66938;52.084;5.228;2023-07-28T06:36:07;100672.0;;;20.09;86.6
77749;BME280;66938;52.084;5.228;2023-07-28T06:39:20;100680.0;;;20.11;86.57
77749;BME280;66938;52.084;5.228;2023-07-28T06:40:56;100680.0;;;20.11;86.56
77749;BME280;66938;52.084;5.228;2023-07-28T06:42:32;100688.0;;;20.09;86.65
77749;BME280;66938;52.084;5.228;2023-07-28T06:45:45;100690.0;;;20.18;86.43
77749;BME280;66938;52.084;5.228;2023-07-28T06:47:21;100693.0;;;20.16;86.3
77749;BME280;66938;52.084;5.228;2023-07-28T06:48:57;100695.0;;;20.11;86.52
77749;BME280;66938;52.084;5.228;2023-07-28T06:52:10;100694.0;;;20.11;86.47
77749;BME280;66938;52.084;5.228;2023-07-28T06:53:46;100696.0;;;20.02;86.86
77749;BME280;66938;52.084;5.228;2023-07-28T06:55:22;100700.0;;;20.0;87.0
77749;BME280;66938;52.084;5.228;2023-07-28T06:56:59;100701.0;;;20.09;86.87
77749;BME280;66938;52.084;5.228;2023-07-28T07:00:12;100701.0;;;20.07;87.05
77749;BME280;66938;52.084;5.228;2023-07-28T07:01:48;100702.0;;;20.09;86.89
77749;BME280;66938;52.084;5.228;2023-07-28T07:03:25;100705.0;;;20.12;86.73
77749;BME280;66938;52.084;5.228;2023-07-28T07:06:37;100709.0;;;20.03;86.97
77749;BME280;66938;52.084;5.228;2023-07-28T07:08:13;100712.0;;;20.05;87.09
77749;BME280;66938;52.084;5.228;2023-07-28T07:09:49;100715.0;;;20.09;86.94
77749;BME280;66938;52.084;5.228;2023-07-28T07:13:01;100705.0;;;20.05;87.19
77749;BME280;66938;52.084;5.228;2023-07-28T07:14:37;100709.0;;;20.11;87.01
77749;BME280;66938;52.084;5.228;2023-07-28T07:16:14;100708.0;;;20.14;86.66
77749;BME280;66938;52.084;5.228;2023-07-28T07:17:51;100713.0;;;20.18;86.65
77749;BME280;66938;52.084;5.228;2023-07-28T07:21:04;100713.0;;;20.2;86.75
77749;BME280;66938;52.084;5.228;2023-07-28T07:22:40;100713.0;;;20.22;86.49
77749;BME280;66938;52.084;5.228;2023-07-28T07:24:16;100718.0;;;20.25;86.15
77749;BME280;66938;52.084;5.228;2023-07-28T07:27:28;100722.0;;;20.22;86.09
77749;BME280;66938;52.084;5.228;2023-07-28T07:29:05;100725.0;;;20.34;85.92
77749;BME280;66938;52.084;5.228;2023-07-28T07:30:41;100727.0;;;20.27;85.5
77749;BME280;66938;52.084;5.228;2023-07-28T07:33:53;100731.0;;;20.31;85.41
77749;BME280;66938;52.084;5.228;2023-07-28T07:35:29;100730.0;;;20.41;85.48
77749;BME280;66938;52.084;5.228;2023-07-28T07:37:05;100730.0;;;20.36;85.37
77749;BME280;66938;52.084;5.228;2023-07-28T07:40:17;100735.0;;;20.36;85.16
77749;BME280;66938;52.084;5.228;2023-07-28T07:41:54;100733.0;;;20.49;84.89
77749;BME280;66938;52.084;5.228;2023-07-28T07:43:30;100739.0;;;20.45;84.69
77749;BME280;66938;52.084;5.228;2023-07-28T07:45:07;100742.0;;;20.46;84.51
77749;BME280;66938;52.084;5.228;2023-07-28T07:48:19;100738.0;;;20.49;84.5
77749;BME280;66938;52.084;5.228;2023-07-28T07:49:55;100739.0;;;20.47;84.34
77749;BME280;66938;52.084;5.228;2023-07-28T07:51:31;100744.0;;;20.47;83.97
77749;BME280;66938;52.084;5.228;2023-07-28T07:54:44;100745.0;;;20.5;84.44
77749;BME280;66938;52.084;5.228;2023-07-28T07:56:20;100744.0;;;20.51;84.07
77749;BME280;66938;52.084;5.228;2023-07-28T07:59:32;100743.0;;;20.57;83.44
77749;BME280;66938;52.084;5.228;2023-07-28T08:01:08;100753.0;;;20.61;83.43
77749;BME280;66938;52.084;5.228;2023-07-28T08:02:44;100755.0;;;20.68;83.37
77749;BME280;66938;52.084;5.228;2023-07-28T08:04:20;100759.0;;;20.71;82.47
77749;BME280;66938;52.084;5.228;2023-07-28T08:07:33;100756.0;;;20.77;82.84
77749;BME280;66938;52.084;5.228;2023-07-28T08:09:09;100761.0;;;20.77;83.12
77749;BME280;66938;52.084;5.228;2023-07-28T08:10:45;100760.0;;;20.86;82.52
77749;BME280;66938;52.084;5.228;2023-07-28T08:12:21;100763.0;;;20.86;82.01
77749;BME280;66938;52.084;5.228;2023-07-28T08:15:33;100769.0;;;20.93;81.33
77749;BME280;66938;52.084;5.228;2023-07-28T08:17:10;100766.0;;;20.97;81.58
77749;BME280;66938;52.084;5.228;2023-07-28T08:18:46;100769.0;;;21.13;81.44
77749;BME280;66938;52.084;5.228;2023-07-28T08:21:59;100769.0;;;21.14;80.77
77749;BME280;66938;52.084;5.228;2023-07-28T08:23:35;100767.0;;;21.11;80.77
77749;BME280;66938;52.084;5.228;2023-07-28T08:25:11;100762.0;;;21.21;80.67
77749;BME280;66938;52.084;5.228;2023-07-28T08:28:23;100769.0;;;21.19;80.39
77749;BME280;66938;52.084;5.228;2023-07-28T08:30:00;100763.0;;;21.14;80.05
77749;BME280;66938;52.084;5.228;2023-07-28T08:31:36;100764.0;;;21.23;80.11
77749;BME280;66938;52.084;5.228;2023-07-28T08:33:13;100768.0;;;21.17;79.77
77749;BME280;66938;52.084;5.228;2023-07-28T08:36:25;100772.0;;;21.26;79.61
77749;BME280;66938;52.084;5.228;2023-07-28T08:38:01;100777.0;;;21.28;79.77
77749;BME280;66938;52.084;5.228;2023-07-28T08:39:37;100780.0;;;21.16;79.84
77749;BME280;66938;52.084;5.228;2023-07-28T08:42:51;100790.0;;;21.18;80.33
77749;BME280;66938;52.084;5.228;2023-07-28T08:44:29;100786.0;;;21.25;79.47
77749;BME280;66938;52.084;5.228;2023-07-28T08:46:06;100782.0;;;21.34;79.33
77749;BME280;66938;52.084;5.228;2023-07-28T08:49:18;100777.0;;;21.41;79.37
77749;BME280;66938;52.084;5.228;2023-07-28T08:50:54;100783.0;;;21.36;78.55
77749;BME280;66938;52.084;5.228;2023-07-28T08:52:30;100782.0;;;21.37;78.94
77749;BME280;66938;52.084;5.228;2023-07-28T08:54:06;100777.0;;;21.38;78.69
77749;BME280;66938;52.084;5.228;2023-07-28T08:57:18;100774.0;;;21.42;78.27
77749;BME280;66938;52.084;5.228;2023-07-28T08:58:58;100780.0;;;21.49;78.86
77749;BME280;66938;52.084;5.228;2023-07-28T09:00:36;100781.0;;;21.5;78.44
77749;BME280;66938;52.084;5.228;2023-07-28T09:03:52;100784.0;;;21.5;78.37
77749;BME280;66938;52.084;5.228;2023-07-28T09:05:28;100782.0;;;21.45;78.2
77749;BME280;66938;52.084;5.228;2023-07-28T09:07:05;100782.0;;;21.62;77.83
77749;BME280;66938;52.084;5.228;2023-07-28T09:10:19;100781.0;;;21.69;77.66
77749;BME280;66938;52.084;5.228;2023-07-28T09:11:55;100781.0;;;21.76;78.19
77749;BME280;66938;52.084;5.228;2023-07-28T09:13:36;100778.0;;;21.81;76.91
77749;BME280;66938;52.084;5.228;2023-07-28T09:15:13;100780.0;;;21.99;77.06
77749;BME280;66938;52.084;5.228;2023-07-28T09:18:25;100782.0;;;21.99;76.7
77749;BME280;66938;52.084;5.228;2023-07-28T09:20:01;100781.0;;;22.07;76.12
77749;BME280;66938;52.084;5.228;2023-07-28T09:21:38;100785.0;;;22.13;75.72
77749;BME280;66938;52.084;5.228;2023-07-28T09:24:52;100784.0;;;22.15;75.7
77749;BME280;66938;52.084;5.228;2023-07-28T09:26:36;100780.0;;;22.21;75.73
77749;BME280;66938;52.084;5.228;2023-07-28T09:28:13;100787.0;;;22.24;74.52
77749;BME280;66938;52.084;5.228;2023-07-28T09:29:50;100786.0;;;22.32;74.66
77749;BME280;66938;52.084;5.228;2023-07-28T09:33:06;100786.0;;;22.34;74.17
77749;BME280;66938;52.084;5.228;2023-07-28T09:34:42;100784.0;;;22.35;74.12
77749;BME280;66938;52.084;5.228;2023-07-28T09:36:18;100785.0;;;22.47;74.25
77749;BME280;66938;52.084;5.228;2023-07-28T09:39:31;100783.0;;;22.41;74.06
77749;BME280;66938;52.084;5.228;2023-07-28T09:41:11;100782.0;;;22.49;73.08
77749;BME280;66938;52.084;5.228;2023-07-28T09:42:48;100789.0;;;22.49;73.22
77749;BME280;66938;52.084;5.228;2023-07-28T09:44:25;100788.0;;;22.52;73.06
77749;BME280;66938;52.084;5.228;2023-07-28T09:47:40;100790.0;;;22.57;73.77
77749;BME280;66938;52.084;5.228;2023-07-28T09:49:21;100792.0;;;22.68;73.16
77749;BME280;66938;52.084;5.228;2023-07-28T09:51:08;100792.0;;;22.79;72.77
77749;BME280;66938;52.084;5.228;2023-07-28T09:52:53;100791.0;;;22.76;71.19
77749;BME280;66938;52.084;5.228;2023-07-28T09:56:10;100797.0;;;22.64;70.72
77749;BME280;66938;52.084;5.228;2023-07-28T09:57:52;100805.0;;;22.69;70.73
77749;BME280;66938;52.084;5.228;2023-07-28T09:59:32;100798.0;;;22.75;70.53
77749;BME280;66938;52.084;5.228;2023-07-28T10:01:13;100793.0;;;22.86;71.22
77749;BME280;66938;52.084;5.228;2023-07-28T10:04:26;100794.0;;;22.9;69.8
77749;BME280;66938;52.084;5.228;2023-07-28T10:06:03;100792.0;;;23.02;70.45
77749;BME280;66938;52.084;5.228;2023-07-28T10:07:44;100796.0;;;23.02;69.63
77749;BME280;66938;52.084;5.228;2023-07-28T10:10:57;100791.0;;;22.89;69.72
77749;BME280;66938;52.084;5.228;2023-07-28T10:12:40;100792.0;;;22.83;69.34
77749;BME280;66938;52.084;5.228;2023-07-28T10:14:25;100788.0;;;22.82;69.66
77749;BME280;66938;52.084;5.228;2023-07-28T10:16:02;100785.0;;;22.81;69.81
77749;BME280;66938;52.084;5.228;2023-07-28T10:19:19;100787.0;;;22.89;70.11
77749;BME280;66938;52.084;5.228;2023-07-28T10:21:04;100794.0;;;22.85;69.42
77749;BME280;66938;52.084;5.228;2023-07-28T10:22:43;100795.0;;;22.91;68.48
77749;BME280;66938;52.084;5.228;2023-07-28T10:24:49;100796.0;;;22.83;68.5
77749;BME280;66938;52.084;5.228;2023-07-28T10:26:31;100788.0;;;22.9;67.99
77749;BME280;66938;52.084;5.228;2023-07-28T10:28:26;100794.0;;;22.95;68.66
77749;BME280;66938;52.084;5.228;2023-07-28T10:31:50;100786.0;;;23.05;68.99
77749;BME280;66938;52.084;5.228;2023-07-28T10:33:29;100794.0;;;23.04;68.8
77749;BME280;66938;52.084;5.228;2023-07-28T10:35:07;100796.0;;;22.98;67.63
77749;BME280;66938;52.084;5.228;2023-07-28T10:36:45;100793.0;;;23.01;68.41
77749;BME280;66938;52.084;5.228;2023-07-28T10:40:25;100799.0;;;23.13;68.86
77749;BME280;66938;52.084;5.228;2023-07-28T10:42:05;100795.0;;;23.15;69.58
77749;BME280;66938;52.084;5.228;2023-07-28T10:43:42;100792.0;;;23.21;69.06
77749;BME280;66938;52.084;5.228;2023-07-28T10:45:19;100792.0;;;23.38;69.89
77749;BME280;66938;52.084;5.228;2023-07-28T10:48:34;100799.0;;;23.25;68.3
77749;BME280;66938;52.084;5.228;2023-07-28T10:50:11;100801.0;;;23.29;69.28
77749;BME280;66938;52.084;5.228;2023-07-28T10:51:48;100801.0;;;23.22;69.08
77749;BME280;66938;52.084;5.228;2023-07-28T10:53:24;100807.0;;;23.17;69.47
77749;BME280;66938;52.084;5.228;2023-07-28T10:56:36;100808.0;;;23.22;70.19
77749;BME280;66938;52.084;5.228;2023-07-28T10:58:12;100805.0;;;23.2;70.33
77749;BME280;66938;52.084;5.228;2023-07-28T10:59:50;100802.0;;;23.23;69.75
77749;BME280;66938;52.084;5.228;2023-07-28T11:03:08;100811.0;;;23.24;69.66
77749;BME280;66938;52.084;5.228;2023-07-28T11:04:45;100811.0;;;23.25;69.53
77749;BME280;66938;52.084;5.228;2023-07-28T11:06:22;100810.0;;;23.19;69.41
77749;BME280;66938;52.084;5.228;2023-07-28T11:07:59;100815.0;;;23.2;69.24